Time;durP1;ratioP1;P1;durP2;ratioP2;P2;SDS_P1;SDS_P2;PMS_P1;PMS_P2;Temp;Humidity;BMP_temperature;BMP_pressure;BME280_temperature;BME280_humidity;BME280_pressure;Samples;Min_cycle;Max_cycle;Signal;HPM_P1;HPM_P2
2021/09/19 01:15:57;;;;;;;3.42;3.00;;;19.60;99.90;;;;;;5073786;28;20075;-82
2021/09/19 01:25:52;;;;;;;4.30;3.90;;;19.70;99.90;;;;;;5053742;28;20213;-83
2021/09/19 01:28:18;;;;;;;3.20;3.00;;;19.70;99.90;;;;;;5034585;28;20571;-82
2021/09/19 01:30:44;;;;;;;2.90;2.70;;;19.70;99.90;;;;;;5078870;28;20067;-83
2021/09/19 01:33:10;;;;;;;5.25;3.80;;;19.80;99.90;;;;;;5073758;28;20115;-82
2021/09/19 01:35:36;;;;;;;3.03;2.72;;;19.80;99.90;;;;;;5073813;28;20482;-82
2021/09/19 01:38:03;;;;;;;4.13;3.00;;;19.90;99.90;;;;;;5067576;28;20039;-83
2021/09/19 01:40:29;;;;;;;3.17;2.95;;;19.90;99.90;;;;;;5062423;28;20105;-83
2021/09/19 01:42:56;;;;;;;3.00;2.80;;;20.00;99.90;;;;;;5076299;28;20470;-82
2021/09/19 01:45:23;;;;;;;3.33;3.13;;;19.90;99.90;;;;;;5077949;28;20024;-83
2021/09/19 01:47:49;;;;;;;7.10;3.95;;;20.00;99.90;;;;;;5049545;28;20024;-84
2021/09/19 01:50:15;;;;;;;4.60;2.97;;;20.00;99.90;;;;;;5068248;28;20502;-83
2021/09/19 01:52:41;;;;;;;4.03;2.95;;;20.00;99.90;;;;;;5076340;28;20093;-83
2021/09/19 01:55:08;;;;;;;6.53;2.88;;;20.10;99.90;;;;;;5098596;28;20040;-83
2021/09/19 01:57:33;;;;;;;4.82;3.25;;;20.00;99.90;;;;;;5094599;28;20100;-83
2021/09/19 01:59:59;;;;;;;3.95;3.38;;;20.00;99.90;;;;;;5105155;28;20021;-83
2021/09/19 02:02:25;;;;;;;3.10;2.80;;;20.00;99.90;;;;;;5092375;28;20167;-83
2021/09/19 02:04:53;;;;;;;6.65;3.08;;;20.00;99.90;;;;;;5094103;28;20043;-83
2021/09/19 02:07:19;;;;;;;3.03;2.83;;;20.00;99.90;;;;;;5107266;28;20016;-83
2021/09/19 02:09:45;;;;;;;3.55;3.25;;;20.00;99.90;;;;;;5102590;28;20039;-83
2021/09/19 02:12:13;;;;;;;3.40;3.10;;;20.00;99.90;;;;;;5086662;28;20075;-84
2021/09/19 02:14:41;;;;;;;2.92;2.63;;;20.00;99.90;;;;;;5095869;28;20029;-82
2021/09/19 02:17:06;;;;;;;3.80;2.95;;;20.10;99.90;;;;;;5092383;28;20044;-82
2021/09/19 02:19:32;;;;;;;3.08;2.88;;;20.10;99.90;;;;;;5101439;28;20032;-83
2021/09/19 02:21:58;;;;;;;5.45;3.58;;;20.10;99.90;;;;;;5067866;28;20020;-83
2021/09/19 02:24:24;;;;;;;6.30;3.55;;;20.10;99.90;;;;;;5069460;28;20537;-83
2021/09/19 02:26:50;;;;;;;4.15;3.22;;;20.00;99.90;;;;;;5079449;28;20024;-82
2021/09/19 02:29:16;;;;;;;3.40;2.35;;;20.00;99.90;;;;;;5074194;28;20039;-83
2021/09/19 02:31:41;;;;;;;3.15;2.95;;;20.00;99.90;;;;;;5068758;28;20201;-83
2021/09/19 02:34:07;;;;;;;6.57;2.97;;;20.10;99.90;;;;;;5092584;28;20028;-83
2021/09/19 02:36:33;;;;;;;4.30;3.20;;;20.10;99.90;;;;;;5072697;28;20024;-82
2021/09/19 02:38:59;;;;;;;2.72;2.53;;;20.00;99.90;;;;;;5088707;28;20027;-82
2021/09/19 02:41:25;;;;;;;4.22;3.33;;;20.00;99.90;;;;;;5088510;28;20029;-83
2021/09/19 02:43:52;;;;;;;3.55;3.25;;;20.00;99.90;;;;;;5094280;28;20054;-84
2021/09/19 02:46:18;;;;;;;4.32;3.33;;;20.00;99.90;;;;;;5093812;28;20019;-84
2021/09/19 02:48:43;;;;;;;5.55;3.10;;;20.00;99.90;;;;;;5097927;28;20048;-84
2021/09/19 02:51:09;;;;;;;3.70;3.22;;;20.00;99.90;;;;;;5097666;28;20023;-84
2021/09/19 02:53:35;;;;;;;5.40;2.85;;;20.00;99.90;;;;;;5079742;28;20051;-83
2021/09/19 02:56:01;;;;;;;2.75;2.55;;;20.00;99.90;;;;;;5087750;28;20068;-84
2021/09/19 02:58:27;;;;;;;3.17;2.97;;;20.00;99.90;;;;;;5092072;28;20024;-83
2021/09/19 03:00:52;;;;;;;3.35;3.15;;;20.00;99.90;;;;;;5100660;28;20039;-83
2021/09/19 03:03:18;;;;;;;5.53;3.30;;;20.00;99.90;;;;;;5081059;28;20088;-83
2021/09/19 03:05:44;;;;;;;2.88;2.67;;;20.00;99.90;;;;;;5074634;28;20029;-86
2021/09/19 03:08:10;;;;;;;3.95;2.97;;;20.10;99.90;;;;;;5086980;28;20081;-85
2021/09/19 03:10:36;;;;;;;4.63;2.97;;;20.10;99.90;;;;;;5091497;28;20024;-84
2021/09/19 03:13:03;;;;;;;3.08;2.78;;;20.10;99.90;;;;;;5100167;28;20016;-84
2021/09/19 03:15:29;;;;;;;3.25;2.95;;;20.10;99.90;;;;;;5090427;28;20021;-86
2021/09/19 03:17:55;;;;;;;3.47;2.67;;;20.10;99.90;;;;;;5063226;28;20042;-83
2021/09/19 03:20:21;;;;;;;5.93;2.60;;;20.10;99.90;;;;;;5097247;28;20027;-83
2021/09/19 03:22:47;;;;;;;6.72;3.45;;;20.00;99.90;;;;;;5082180;28;20118;-83
2021/09/19 03:25:14;;;;;;;6.78;2.75;;;20.00;99.90;;;;;;5089181;28;20037;-83
2021/09/19 03:27:40;;;;;;;7.07;2.97;;;20.00;99.90;;;;;;5068626;28;20029;-83
2021/09/19 03:30:09;;;;;;;2.35;2.15;;;19.90;99.90;;;;;;5093048;28;20079;-84
2021/09/19 03:32:35;;;;;;;6.93;2.95;;;19.90;99.90;;;;;;5099943;28;20122;-84
2021/09/19 03:35:00;;;;;;;5.30;2.88;;;19.90;99.90;;;;;;5074305;28;20036;-84
2021/09/19 03:37:26;;;;;;;3.10;2.90;;;19.80;99.90;;;;;;5089582;28;20016;-84
2021/09/19 03:39:52;;;;;;;5.60;3.33;;;19.80;99.90;;;;;;5089648;28;20047;-83
2021/09/19 03:42:18;;;;;;;3.60;2.85;;;19.70;99.90;;;;;;5089618;28;20029;-83
2021/09/19 03:44:44;;;;;;;2.83;2.58;;;19.70;99.90;;;;;;5104476;28;20034;-83
2021/09/19 03:47:10;;;;;;;3.22;3.03;;;19.70;99.90;;;;;;5070961;28;20054;-83
2021/09/19 03:49:36;;;;;;;6.70;3.03;;;19.60;99.90;;;;;;5085930;28;20083;-84
2021/09/19 03:52:02;;;;;;;3.20;2.95;;;19.60;99.90;;;;;;5109444;28;20031;-84
2021/09/19 03:54:28;;;;;;;6.95;3.03;;;19.70;99.90;;;;;;5087727;28;20084;-84
2021/09/19 03:56:53;;;;;;;3.00;2.70;;;19.70;99.90;;;;;;5091363;28;20043;-83
2021/09/19 03:59:20;;;;;;;3.05;2.85;;;19.70;99.90;;;;;;5057063;28;20067;-83
2021/09/19 04:01:46;;;;;;;5.35;3.78;;;19.70;99.90;;;;;;5091665;28;20029;-85
2021/09/19 04:04:11;;;;;;;4.07;3.35;;;19.70;99.90;;;;;;5091740;28;20028;-83
2021/09/19 04:06:37;;;;;;;3.67;3.33;;;19.70;99.90;;;;;;5090505;28;20100;-83
2021/09/19 04:09:03;;;;;;;4.03;3.40;;;19.80;99.90;;;;;;5093795;28;20035;-83
2021/09/19 04:11:29;;;;;;;11.15;3.30;;;19.80;99.90;;;;;;5098871;28;20024;-84
2021/09/19 04:13:55;;;;;;;3.55;2.78;;;19.80;99.90;;;;;;5098926;28;20023;-84
2021/09/19 04:16:21;;;;;;;3.40;3.08;;;19.80;99.90;;;;;;5087458;28;20487;-84
2021/09/19 04:18:47;;;;;;;3.40;2.92;;;19.80;99.90;;;;;;5081112;28;20101;-84
2021/09/19 04:21:13;;;;;;;2.80;2.60;;;19.90;99.90;;;;;;5082173;28;20107;-84
2021/09/19 04:23:39;;;;;;;3.03;2.80;;;19.90;99.90;;;;;;5066968;28;20025;-84
2021/09/19 04:26:04;;;;;;;3.45;3.10;;;19.90;99.90;;;;;;5094752;28;20032;-83
2021/09/19 04:28:30;;;;;;;4.40;2.83;;;19.80;99.90;;;;;;5075918;28;20036;-83
2021/09/19 04:30:56;;;;;;;4.25;2.92;;;19.80;99.90;;;;;;5098494;28;20458;-83
2021/09/19 04:33:22;;;;;;;5.55;3.40;;;19.70;99.90;;;;;;5092654;28;20052;-83
2021/09/19 04:35:48;;;;;;;4.53;3.50;;;19.70;99.90;;;;;;5087210;28;20039;-83
2021/09/19 04:38:13;;;;;;;4.47;2.80;;;19.60;99.90;;;;;;5071928;28;20036;-83
2021/09/19 04:40:39;;;;;;;3.78;3.20;;;19.60;99.90;;;;;;5100108;28;20024;-84
2021/09/19 04:43:05;;;;;;;5.95;4.20;;;19.50;99.90;;;;;;5095690;28;20028;-83
2021/09/19 04:45:31;;;;;;;5.28;4.13;;;19.50;99.90;;;;;;5096317;28;20024;-83
2021/09/19 04:47:57;;;;;;;3.55;3.28;;;19.40;99.90;;;;;;5100215;28;20043;-85
2021/09/19 04:50:23;;;;;;;3.97;3.13;;;19.40;99.90;;;;;;5095919;28;20028;-83
2021/09/19 04:52:48;;;;;;;4.75;3.38;;;19.40;99.90;;;;;;5084795;28;20033;-83
2021/09/19 04:55:14;;;;;;;3.22;2.85;;;19.40;99.90;;;;;;5078507;28;20036;-84
2021/09/19 04:57:40;;;;;;;3.50;3.20;;;19.50;99.90;;;;;;5089188;28;20021;-83
2021/09/19 05:00:07;;;;;;;3.95;3.55;;;19.50;99.90;;;;;;5083336;28;20028;-83
2021/09/19 05:02:33;;;;;;;4.50;3.25;;;19.40;99.90;;;;;;5079706;28;20391;-83
2021/09/19 05:04:59;;;;;;;3.75;3.45;;;19.50;99.90;;;;;;5086010;28;20494;-82
2021/09/19 05:07:24;;;;;;;3.85;2.88;;;19.40;99.90;;;;;;5085819;28;20068;-83
2021/09/19 05:09:50;;;;;;;3.97;3.30;;;19.30;99.90;;;;;;5079469;28;20048;-83
2021/09/19 05:12:16;;;;;;;7.95;4.65;;;19.30;99.90;;;;;;5105594;28;20104;-83
2021/09/19 05:14:42;;;;;;;3.55;3.25;;;19.30;99.90;;;;;;5093543;28;20036;-83
2021/09/19 05:17:07;;;;;;;5.57;3.45;;;19.40;99.90;;;;;;5111275;28;20037;-84
2021/09/19 05:19:33;;;;;;;3.67;3.33;;;19.40;99.90;;;;;;5092803;28;20063;-83
2021/09/19 05:21:59;;;;;;;4.75;3.25;;;19.50;99.90;;;;;;5099811;28;20024;-83
2021/09/19 05:24:25;;;;;;;4.70;4.00;;;19.60;99.90;;;;;;5113066;28;20044;-84
2021/09/19 05:26:51;;;;;;;3.95;3.65;;;19.70;99.90;;;;;;5106289;28;20024;-84
2021/09/19 05:29:17;;;;;;;3.25;2.88;;;19.70;99.90;;;;;;5106599;28;20030;-83
2021/09/19 05:31:42;;;;;;;6.18;3.67;;;19.70;99.90;;;;;;5080025;28;21497;-83
2021/09/19 05:34:08;;;;;;;3.55;2.83;;;19.70;99.90;;;;;;5104085;28;20023;-83
2021/09/19 05:36:34;;;;;;;3.45;3.13;;;19.70;99.90;;;;;;5097441;28;20092;-83
2021/09/19 05:39:00;;;;;;;4.68;2.92;;;19.60;99.90;;;;;;5104146;28;20020;-84
2021/09/19 05:41:25;;;;;;;3.47;3.17;;;19.70;99.90;;;;;;5107117;28;20032;-84
2021/09/19 05:43:54;;;;;;;4.38;2.90;;;19.70;99.90;;;;;;5100083;28;20032;-82
2021/09/19 05:46:21;;;;;;;4.93;3.30;;;19.80;99.90;;;;;;5100751;28;20033;-83
2021/09/19 05:48:46;;;;;;;5.32;4.18;;;19.90;99.90;;;;;;5093065;28;20043;-82
2021/09/19 05:51:12;;;;;;;3.88;3.58;;;19.90;99.90;;;;;;5091936;28;20032;-83
2021/09/19 05:53:38;;;;;;;2.90;2.70;;;19.90;99.90;;;;;;5106267;28;20024;-83
2021/09/19 05:56:05;;;;;;;5.03;3.72;;;19.80;99.90;;;;;;5085089;28;20091;-83
2021/09/19 05:58:30;;;;;;;3.58;3.08;;;19.70;99.90;;;;;;5090040;28;20046;-82
2021/09/19 06:00:56;;;;;;;3.53;2.85;;;19.70;99.90;;;;;;5101018;28;20024;-83
2021/09/19 06:03:22;;;;;;;5.60;3.42;;;19.90;99.90;;;;;;5100751;28;20065;-83
2021/09/19 06:05:48;;;;;;;8.40;3.38;;;19.90;99.90;;;;;;5111542;28;20034;-83
2021/09/19 06:08:13;;;;;;;4.82;3.42;;;19.90;99.90;;;;;;5093394;28;20047;-83
2021/09/19 06:10:39;;;;;;;5.22;2.97;;;19.90;99.90;;;;;;5076330;28;20025;-82
2021/09/19 06:13:05;;;;;;;3.25;2.95;;;20.10;99.90;;;;;;5099304;28;20024;-83
2021/09/19 06:15:31;;;;;;;3.50;3.20;;;20.20;99.90;;;;;;5095542;28;20033;-83
2021/09/19 06:17:57;;;;;;;3.30;3.10;;;20.30;99.90;;;;;;5085778;28;20063;-83
2021/09/19 06:20:23;;;;;;;4.03;2.72;;;20.40;99.90;;;;;;5091925;28;20025;-83
2021/09/19 06:22:49;;;;;;;5.60;3.40;;;20.40;99.90;;;;;;5081262;28;20079;-82
2021/09/19 06:25:15;;;;;;;5.30;2.80;;;20.30;99.90;;;;;;5046934;28;20025;-82
2021/09/19 06:27:41;;;;;;;3.35;3.05;;;20.30;99.90;;;;;;5069622;28;20033;-82
2021/09/19 06:30:08;;;;;;;9.13;3.38;;;20.20;99.90;;;;;;5081111;28;20124;-83
2021/09/19 06:32:35;;;;;;;6.70;3.33;;;20.20;99.90;;;;;;5081907;28;20474;-84
2021/09/19 06:35:01;;;;;;;3.88;2.92;;;20.10;99.90;;;;;;5091730;28;20020;-83
2021/09/19 06:37:27;;;;;;;3.85;3.42;;;20.20;99.90;;;;;;5080069;28;20040;-83
2021/09/19 06:39:53;;;;;;;4.85;3.20;;;20.20;99.90;;;;;;5070905;28;20084;-84
2021/09/19 06:42:19;;;;;;;5.07;3.33;;;20.20;99.90;;;;;;5071196;28;20021;-83
2021/09/19 06:44:45;;;;;;;4.00;3.70;;;20.30;99.90;;;;;;5084908;28;20493;-83
2021/09/19 06:47:11;;;;;;;6.00;4.00;;;20.30;99.90;;;;;;5073441;28;20078;-83
2021/09/19 06:49:36;;;;;;;5.63;4.80;;;20.40;99.90;;;;;;5073151;28;20032;-83
2021/09/19 06:52:03;;;;;;;7.15;3.95;;;20.50;99.90;;;;;;5091742;28;20423;-83
2021/09/19 06:54:29;;;;;;;3.78;3.15;;;20.70;99.90;;;;;;5091431;28;20501;-83
2021/09/19 06:56:55;;;;;;;6.93;3.70;;;20.70;99.90;;;;;;5077498;28;20020;-84
2021/09/19 06:59:21;;;;;;;6.40;3.88;;;20.70;99.90;;;;;;5090033;28;20025;-82
2021/09/19 07:01:47;;;;;;;5.28;4.13;;;20.80;99.90;;;;;;5089152;28;20024;-82
2021/09/19 07:04:13;;;;;;;3.70;3.35;;;21.00;99.90;;;;;;5087822;28;20532;-83
2021/09/19 07:06:38;;;;;;;5.63;3.92;;;21.10;99.90;;;;;;5071430;28;20033;-82
2021/09/19 07:09:05;;;;;;;4.82;3.67;;;21.20;99.90;;;;;;5045387;28;20112;-82
2021/09/19 07:11:30;;;;;;;5.50;3.35;;;21.40;99.90;;;;;;5088350;28;20035;-83
2021/09/19 07:13:56;;;;;;;5.03;3.50;;;21.60;99.90;;;;;;5087787;28;20490;-83
2021/09/19 07:16:22;;;;;;;5.25;3.72;;;21.70;99.90;;;;;;5075314;28;20028;-84
2021/09/19 07:18:48;;;;;;;6.68;3.40;;;21.80;99.90;;;;;;5079159;28;20033;-83
2021/09/19 07:21:14;;;;;;;4.57;4.03;;;22.00;99.90;;;;;;5089409;28;20030;-82
2021/09/19 07:23:40;;;;;;;3.80;3.13;;;22.10;99.90;;;;;;5089673;28;20020;-83
2021/09/19 07:26:06;;;;;;;4.70;3.80;;;22.30;99.90;;;;;;5076116;28;20198;-82
2021/09/19 07:28:32;;;;;;;10.13;4.32;;;22.30;99.90;;;;;;5050785;28;20039;-82
2021/09/19 07:30:58;;;;;;;6.10;3.67;;;22.30;99.90;;;;;;5074292;28;20025;-82
2021/09/19 07:33:25;;;;;;;2.78;2.58;;;22.20;99.90;;;;;;5077298;28;20055;-82
2021/09/19 07:35:51;;;;;;;3.25;2.95;;;22.20;99.90;;;;;;5081306;28;20253;-83
2021/09/19 07:38:18;;;;;;;4.20;3.15;;;22.20;99.90;;;;;;5071163;28;20115;-83
2021/09/19 07:40:46;;;;;;;4.45;3.10;;;22.20;99.90;;;;;;5082980;28;20017;-82
2021/09/19 07:43:12;;;;;;;4.75;3.50;;;22.30;99.90;;;;;;5071618;28;20058;-82
2021/09/19 07:45:38;;;;;;;3.08;2.83;;;22.20;99.90;;;;;;5081560;28;20371;-82
2021/09/19 07:48:14;;;;;;;4.05;3.53;;;22.20;99.90;;;;;;5070590;28;20039;-82
2021/09/19 07:50:41;;;;;;;5.38;4.07;;;22.20;99.90;;;;;;5104053;28;20081;-82
2021/09/19 07:53:07;;;;;;;5.13;3.70;;;22.00;99.90;;;;;;5077615;28;20112;-82
2021/09/19 07:55:34;;;;;;;5.40;3.35;;;22.00;99.90;;;;;;5068662;28;20029;-84
2021/09/19 07:58:01;;;;;;;6.88;3.53;;;22.00;99.90;;;;;;5056152;28;20054;-83
2021/09/19 08:00:27;;;;;;;3.67;3.38;;;21.90;99.90;;;;;;5087608;28;20021;-82
2021/09/19 08:02:54;;;;;;;4.90;3.25;;;21.90;99.90;;;;;;5071886;28;20163;-83
2021/09/19 08:05:23;;;;;;;4.00;3.60;;;22.00;99.90;;;;;;5088805;28;20424;-83
2021/09/19 08:07:50;;;;;;;2.88;2.67;;;22.20;99.90;;;;;;5088756;28;20035;-84
2021/09/19 08:10:16;;;;;;;5.20;2.80;;;22.20;99.90;;;;;;5089150;28;20055;-77
2021/09/19 08:12:46;;;;;;;5.10;2.90;;;22.30;99.90;;;;;;5075701;28;20033;-79
2021/09/19 08:15:14;;;;;;;3.90;3.33;;;22.30;99.90;;;;;;5069176;28;20156;-78
2021/09/19 08:17:41;;;;;;;5.22;3.78;;;22.20;99.90;;;;;;5058907;28;20021;-79
2021/09/19 08:20:08;;;;;;;3.35;2.65;;;22.20;99.90;;;;;;5049032;28;20437;-78
2021/09/19 08:22:34;;;;;;;3.03;2.83;;;22.20;99.90;;;;;;5088290;28;20344;-79
2021/09/19 08:25:04;;;;;;;4.35;3.38;;;22.20;99.90;;;;;;5076832;28;20123;-78
2021/09/19 08:27:30;;;;;;;10.40;4.13;;;22.40;99.90;;;;;;5076036;28;20032;-80
2021/09/19 08:29:56;;;;;;;6.13;3.45;;;22.60;99.90;;;;;;5067868;28;20028;-79
2021/09/19 08:32:23;;;;;;;4.25;3.45;;;22.70;99.90;;;;;;5085605;28;20024;-79
2021/09/19 08:34:49;;;;;;;4.00;3.17;;;22.70;99.90;;;;;;5073828;28;20394;-78
2021/09/19 08:37:15;;;;;;;6.18;2.92;;;22.70;99.90;;;;;;5074226;28;20052;-79
2021/09/19 08:39:41;;;;;;;3.25;2.95;;;22.60;99.90;;;;;;5069370;28;20024;-79
2021/09/19 08:42:08;;;;;;;3.05;2.75;;;22.60;99.90;;;;;;5077369;28;20035;-79
2021/09/19 08:44:33;;;;;;;9.82;3.88;;;22.60;99.90;;;;;;5070806;28;20375;-78
2021/09/19 08:47:00;;;;;;;4.07;3.05;;;22.60;99.90;;;;;;5075268;28;20025;-79
2021/09/19 08:49:26;;;;;;;3.40;3.10;;;22.70;99.90;;;;;;5071227;28;20564;-78
2021/09/19 08:51:51;;;;;;;4.20;2.90;;;22.70;99.90;;;;;;5065003;28;20028;-79
2021/09/19 08:54:18;;;;;;;2.90;2.70;;;22.70;99.90;;;;;;5078391;28;20029;-79
2021/09/19 08:56:47;;;;;;;3.50;3.20;;;22.80;99.90;;;;;;5067338;28;20579;-79
2021/09/19 08:59:13;;;;;;;7.10;3.22;;;22.80;99.90;;;;;;5066233;28;20361;-80
2021/09/19 09:02:02;;;;;;;8.75;3.42;;;23.00;99.90;;;;;;5073573;28;20017;-78
2021/09/19 09:04:27;;;;;;;3.58;3.28;;;23.20;99.90;;;;;;5069409;28;20044;-79
2021/09/19 09:06:55;;;;;;;3.13;2.83;;;23.30;99.90;;;;;;5079982;28;20024;-80
2021/09/19 09:09:22;;;;;;;3.78;3.45;;;23.40;99.90;;;;;;5060681;28;20043;-78
2021/09/19 09:12:03;;;;;;;3.83;3.22;;;23.30;99.90;;;;;;5062586;28;20028;-78
2021/09/19 09:14:29;;;;;;;8.60;3.97;;;23.10;99.90;;;;;;5081903;28;20088;-79
2021/09/19 09:17:18;;;;;;;5.45;3.30;;;23.00;99.90;;;;;;5080515;28;20028;-80
2021/09/19 09:19:50;;;;;;;4.32;3.50;;;23.20;99.90;;;;;;5059077;28;20151;-79
2021/09/19 09:22:36;;;;;;;;;;;23.50;99.90;;;;;;5067755;28;20017;-80
2021/09/19 09:25:25;;;;;;;6.57;3.03;;;23.40;99.90;;;;;;5080024;28;19912;-80
2021/09/19 09:27:52;;;;;;;6.22;3.33;;;23.20;99.90;;;;;;5059628;28;20032;-79
2021/09/19 09:30:19;;;;;;;4.47;3.80;;;23.40;99.90;;;;;;5097250;28;20041;-79
2021/09/19 09:33:03;;;;;;;3.70;3.17;;;23.40;99.90;;;;;;5086767;28;20060;-79
2021/09/19 09:35:36;;;;;;;3.58;3.28;;;23.50;99.90;;;;;;5071493;28;20434;-79
2021/09/19 09:38:17;;;;;;;6.15;3.05;;;23.50;99.90;;;;;;5080648;28;20123;-79
2021/09/19 09:40:43;;;;;;;3.67;2.97;;;23.60;99.90;;;;;;5062914;28;20116;-81
2021/09/19 09:43:12;;;;;;;2.63;2.42;;;23.70;99.90;;;;;;5062568;28;20032;-80
2021/09/19 09:45:41;;;;;;;3.22;2.80;;;23.90;99.90;;;;;;5048260;28;20123;-79
2021/09/19 09:48:31;;;;;;;6.00;3.45;;;24.00;99.90;;;;;;5080862;28;20055;-80
2021/09/19 09:51:00;;;;;;;6.88;4.45;;;24.10;99.90;;;;;;5089961;28;20280;-80
2021/09/19 09:53:27;;;;;;;7.50;4.55;;;24.20;99.90;;;;;;5086212;28;20032;-79
2021/09/19 09:55:54;;;;;;;4.20;3.88;;;24.40;99.90;;;;;;5065830;28;20021;-79
2021/09/19 09:58:21;;;;;;;6.82;4.93;;;24.70;99.90;;;;;;5065062;28;20111;-79
2021/09/19 10:00:50;;;;;;;6.22;3.30;;;24.80;99.90;;;;;;5062614;28;20021;-79
2021/09/19 10:03:16;;;;;;;4.03;3.00;;;24.90;99.90;;;;;;5044593;28;20057;-79
2021/09/19 10:05:43;;;;;;;14.88;3.78;;;24.80;99.90;;;;;;5080448;28;20032;-79
2021/09/19 10:08:10;;;;;;;3.78;3.28;;;24.80;99.90;;;;;;5081515;28;20017;-79
2021/09/19 10:10:40;;;;;;;5.35;3.10;;;24.90;99.90;;;;;;5064683;28;20035;-78
2021/09/19 10:13:07;;;;;;;4.07;3.08;;;24.80;99.90;;;;;;5080636;28;20083;-82
2021/09/19 10:15:34;;;;;;;7.63;2.85;;;24.80;99.90;;;;;;5062860;28;20024;-73
2021/09/19 10:18:00;;;;;;;3.78;3.38;;;25.00;99.90;;;;;;5075519;28;20422;-73
2021/09/19 10:20:37;;;;;;;3.63;3.33;;;25.10;99.90;;;;;;5072691;28;20479;-73
2021/09/19 10:23:21;;;;;;;9.38;7.13;;;25.30;99.90;;;;;;5055512;28;20067;-78
2021/09/19 10:26:00;;;;;;;12.60;11.38;;;25.50;99.90;;;;;;5048903;28;20029;-74
2021/09/19 10:28:44;;;;;;;4.93;3.83;;;25.60;99.90;;;;;;5054661;28;20039;-74
2021/09/19 10:31:18;;;;;;;3.63;3.33;;;25.60;99.90;;;;;;5076626;28;20028;-73
2021/09/19 10:33:57;;;;;;;8.63;6.32;;;25.60;99.90;;;;;;5072647;28;20021;-74
2021/09/19 10:36:29;;;;;;;4.78;3.78;;;25.60;99.90;;;;;;5055065;28;20115;-73
2021/09/19 10:39:10;;;;;;;5.68;3.33;;;25.70;99.90;;;;;;5055297;28;20374;-73
2021/09/19 10:41:36;;;;;;;4.38;3.83;;;25.40;99.90;;;;;;5073496;28;20112;-74
2021/09/19 10:44:04;;;;;;;6.57;3.45;;;25.00;99.90;;;;;;5061879;28;20159;-73
2021/09/19 10:46:36;;;;;;;8.75;4.43;;;24.60;99.90;;;;;;5070216;28;20052;-73
2021/09/19 10:49:17;;;;;;;3.15;2.95;;;24.40;99.90;;;;;;5065646;28;20021;-73
2021/09/19 10:52:01;;;;;;;3.78;3.50;;;24.40;99.90;;;;;;5054819;28;20029;-73
2021/09/19 10:54:42;;;;;;;3.85;3.47;;;24.20;99.90;;;;;;5039637;28;20518;-74
2021/09/19 10:57:19;;;;;;;7.93;2.97;;;24.00;99.90;;;;;;5073284;28;20054;-73
2021/09/19 11:00:13;;;;;;;6.43;4.07;;;24.00;99.90;;;;;;5070618;28;20289;-73
2021/09/19 11:02:41;;;;;;;3.60;3.40;;;23.80;99.90;;;;;;5052602;28;20426;-73
2021/09/19 11:05:31;;;;;;;3.95;3.65;;;23.70;99.90;;;;;;5052377;28;20091;-73
2021/09/19 11:08:06;;;;;;;6.70;3.22;;;23.80;99.90;;;;;;5054181;28;20585;-74
2021/09/19 11:10:35;;;;;;;4.15;3.15;;;24.00;99.90;;;;;;5070697;28;20035;-73
2021/09/19 11:13:25;;;;;;;5.65;4.55;;;24.20;99.90;;;;;;5056029;28;20027;-73
2021/09/19 11:16:04;;;;;;;5.05;3.90;;;24.40;99.90;;;;;;5072694;28;20036;-73
2021/09/19 11:18:30;;;;;;;3.38;3.03;;;24.90;99.90;;;;;;5063384;28;20500;-72
2021/09/19 11:21:19;;;;;;;4.25;3.35;;;25.20;99.90;;;;;;5064938;28;20115;-74
2021/09/19 11:23:52;;;;;;;3.58;2.92;;;25.00;99.90;;;;;;5078429;28;20227;-73
2021/09/19 11:26:27;;;;;;;4.10;3.70;;;25.20;99.90;;;;;;5053985;28;20029;-73
2021/09/19 11:29:01;;;;;;;9.95;3.30;;;24.90;99.90;;;;;;5051768;28;20037;-73
2021/09/19 11:31:27;;;;;;;3.72;3.42;;;24.90;99.90;;;;;;5067903;28;20028;-73
2021/09/19 11:33:53;;;;;;;3.60;2.83;;;25.20;99.90;;;;;;5073303;28;20170;-74
2021/09/19 11:36:21;;;;;;;3.45;2.53;;;25.20;99.90;;;;;;5056039;28;20025;-74
2021/09/19 11:38:52;;;;;;;3.10;2.85;;;25.40;99.90;;;;;;5072036;28;20029;-72
2021/09/19 11:41:19;;;;;;;4.23;2.80;;;25.40;99.90;;;;;;5069120;28;20021;-73
2021/09/19 11:43:48;;;;;;;2.25;2.00;;;25.40;99.90;;;;;;5063735;28;20024;-78
2021/09/19 11:46:16;;;;;;;3.65;2.30;;;25.50;99.90;;;;;;5078438;28;20042;-80
2021/09/19 11:48:44;;;;;;;4.03;2.78;;;25.60;99.90;;;;;;5077292;28;20395;-79
2021/09/19 11:51:15;;;;;;;2.40;2.20;;;25.80;99.90;;;;;;5065601;28;20025;-80
2021/09/19 11:53:43;;;;;;;5.82;2.55;;;25.90;99.90;;;;;;5060146;28;20017;-79
2021/09/19 11:56:10;;;;;;;3.78;3.00;;;26.10;99.90;;;;;;5078546;28;20028;-79
2021/09/19 11:58:36;;;;;;;3.95;2.83;;;26.30;99.90;;;;;;5059705;28;20023;-81
2021/09/19 12:01:04;;;;;;;2.60;2.40;;;26.30;99.90;;;;;;5058493;28;20487;-79
2021/09/19 12:03:30;;;;;;;3.08;2.85;;;26.30;99.90;;;;;;5062144;28;20071;-79
2021/09/19 12:06:01;;;;;;;2.85;2.65;;;26.70;99.90;;;;;;5072447;28;20021;-79
2021/09/19 12:08:30;;;;;;;3.45;2.47;;;26.60;99.90;;;;;;5077670;28;20490;-79
2021/09/19 12:10:57;;;;;;;2.63;2.35;;;26.60;99.90;;;;;;5077776;28;20032;-79
2021/09/19 12:13:29;;;;;;;3.85;2.33;;;26.60;99.90;;;;;;5042199;28;20060;-79
2021/09/19 12:16:00;;;;;;;3.67;2.13;;;26.60;99.90;;;;;;5052855;28;20044;-81
2021/09/19 12:18:31;;;;;;;3.67;2.53;;;26.50;99.90;;;;;;5056904;28;20105;-79
2021/09/19 12:21:08;;;;;;;5.18;2.60;;;26.40;99.90;;;;;;5057700;28;20460;-79
2021/09/19 12:23:48;;;;;;;3.45;2.22;;;26.40;99.90;;;;;;5059551;28;20083;-79
2021/09/19 12:26:20;;;;;;;5.88;2.28;;;26.30;99.90;;;;;;5061985;28;20047;-79
2021/09/19 12:28:50;;;;;;;4.15;2.53;;;26.30;99.90;;;;;;5042940;28;20024;-79
2021/09/19 12:31:40;;;;;;;3.05;2.78;;;26.40;99.90;;;;;;5064579;28;20080;-79
2021/09/19 12:34:08;;;;;;;3.22;2.92;;;26.40;99.90;;;;;;5081655;28;20043;-80
2021/09/19 12:36:52;;;;;;;2.80;2.60;;;26.00;99.90;;;;;;5060215;28;20048;-79
2021/09/19 12:39:31;;;;;;;3.40;3.10;;;25.80;99.90;;;;;;5062145;28;20502;-78
2021/09/19 12:41:59;;;;;;;3.08;2.78;;;25.50;99.90;;;;;;5075583;28;20031;-78
2021/09/19 12:44:28;;;;;;;3.40;3.05;;;25.30;99.90;;;;;;5076873;28;20031;-80
2021/09/19 12:46:57;;;;;;;3.63;3.40;;;25.00;99.90;;;;;;5085759;28;20029;-80
2021/09/19 12:49:28;;;;;;;3.80;3.30;;;25.00;99.90;;;;;;5057827;28;20394;-81
2021/09/19 12:52:07;;;;;;;5.78;3.47;;;24.80;99.90;;;;;;5063689;28;20131;-79
2021/09/19 12:54:45;;;;;;;4.15;3.67;;;24.70;99.90;;;;;;5063524;28;20435;-80
2021/09/19 12:57:11;;;;;;;5.30;3.28;;;24.70;99.90;;;;;;5074441;28;20032;-79
2021/09/19 12:59:36;;;;;;;7.60;3.60;;;24.70;99.90;;;;;;5081067;28;20486;-79
2021/09/19 13:02:02;;;;;;;6.38;3.90;;;24.50;99.90;;;;;;5079391;28;20474;-79
2021/09/19 13:04:28;;;;;;;7.55;3.95;;;24.30;99.90;;;;;;5078732;28;20032;-78
2021/09/19 13:06:54;;;;;;;10.18;4.35;;;24.00;99.90;;;;;;5077307;28;20506;-79
2021/09/19 13:09:20;;;;;;;13.80;5.15;;;23.70;99.90;;;;;;5076786;28;20120;-79
2021/09/19 13:11:46;;;;;;;9.75;3.78;;;23.60;99.90;;;;;;5077392;28;20028;-78
2021/09/19 13:14:13;;;;;;;9.65;4.95;;;23.50;99.90;;;;;;5078296;28;20025;-79
2021/09/19 13:16:39;;;;;;;14.77;4.47;;;23.40;99.90;;;;;;5045369;28;20021;-79
2021/09/19 13:19:07;;;;;;;6.40;5.72;;;23.50;99.90;;;;;;5060845;28;20025;-78
2021/09/19 13:21:33;;;;;;;4.30;4.03;;;23.60;99.90;;;;;;5059585;28;20070;-79
2021/09/19 13:23:59;;;;;;;10.48;5.47;;;23.70;99.90;;;;;;5059855;28;20109;-78
2021/09/19 13:26:24;;;;;;;7.43;6.05;;;23.90;99.90;;;;;;5072868;28;20029;-78
2021/09/19 13:28:50;;;;;;;5.30;4.25;;;23.90;99.90;;;;;;5078647;28;20028;-77
2021/09/19 13:31:16;;;;;;;5.95;4.45;;;24.00;99.90;;;;;;5057124;28;20032;-77
2021/09/19 13:33:41;;;;;;;5.20;3.95;;;24.10;99.90;;;;;;5074588;28;20141;-78
2021/09/19 13:36:07;;;;;;;4.47;4.07;;;24.10;99.90;;;;;;5075106;28;20074;-78
2021/09/19 13:38:35;;;;;;;10.25;3.97;;;24.00;99.90;;;;;;5057688;28;20048;-78
2021/09/19 13:41:01;;;;;;;4.22;3.83;;;23.90;99.90;;;;;;5069454;28;20099;-79
2021/09/19 13:43:27;;;;;;;5.10;3.63;;;23.90;99.90;;;;;;5057526;28;20052;-78
2021/09/19 13:45:52;;;;;;;5.70;3.63;;;23.90;99.90;;;;;;5056934;28;20527;-78
2021/09/19 13:48:18;;;;;;;5.57;4.28;;;23.80;99.90;;;;;;5055375;28;20322;-78
2021/09/19 13:50:44;;;;;;;4.70;3.67;;;23.80;99.90;;;;;;5073656;28;20048;-76
2021/09/19 13:53:10;;;;;;;5.90;4.28;;;23.70;99.90;;;;;;5059514;28;20036;-76
2021/09/19 13:55:36;;;;;;;6.93;4.10;;;23.60;99.90;;;;;;5066614;28;20084;-75
2021/09/19 13:58:02;;;;;;;7.28;3.80;;;23.60;99.90;;;;;;5069209;28;20033;-76
2021/09/19 14:00:28;;;;;;;11.43;5.60;;;23.50;99.90;;;;;;5075271;28;20386;-76
2021/09/19 14:02:55;;;;;;;11.38;5.57;;;23.20;99.90;;;;;;5079087;28;20017;-75
2021/09/19 14:05:21;;;;;;;12.32;5.30;;;23.00;99.90;;;;;;5077984;28;20031;-75
2021/09/19 14:07:48;;;;;;;8.05;5.18;;;22.60;99.90;;;;;;5078956;28;20036;-75
2021/09/19 14:10:14;;;;;;;5.80;5.25;;;22.50;99.90;;;;;;5078177;28;20045;-75
2021/09/19 14:12:40;;;;;;;8.70;4.90;;;22.40;99.90;;;;;;5080289;28;20541;-75